createdAt,value
2022-09-26T00:01:35.839Z,99404.86
2022-09-26T00:04:11.355Z,99399.55
2022-09-26T00:06:39.457Z,99398.60
2022-09-26T00:09:07.102Z,99398.48
2022-09-26T00:11:34.875Z,99395.02
2022-09-26T00:14:07.545Z,99398.52
2022-09-26T00:16:35.423Z,99398.80
2022-09-26T00:19:04.075Z,99394.52
2022-09-26T00:21:32.009Z,99386.27
2022-09-26T00:24:00.915Z,99385.07
2022-09-26T00:26:31.121Z,99379.39
2022-09-26T00:29:01.466Z,99377.86
2022-09-26T00:31:32.185Z,99377.73
2022-09-26T00:33:59.908Z,99378.02
2022-09-26T00:36:37.522Z,99371.02
2022-09-26T00:39:12.517Z,99376.14
2022-09-26T00:41:40.258Z,99376.88
2022-09-26T00:44:50.098Z,99377.09
2022-09-26T00:47:49.620Z,99374.21
2022-09-26T00:50:23.926Z,99377.42
2022-09-26T00:53:01.922Z,99375.29
2022-09-26T00:55:36.337Z,99376.55
2022-09-26T00:58:10.104Z,99371.29
2022-09-26T01:00:42.563Z,99374.54
2022-09-26T01:03:10.527Z,99370.10
2022-09-26T01:05:38.829Z,99370.34
2022-09-26T01:08:07.937Z,99367.55
2022-09-26T01:10:36.520Z,99366.52
2022-09-26T01:13:05.290Z,99365.65
2022-09-26T01:15:34.491Z,99365.01
2022-09-26T01:18:02.700Z,99363.36
2022-09-26T01:20:53.946Z,99363.64
2022-09-26T01:23:41.858Z,99361.02
2022-09-26T01:26:09.432Z,99357.45
2022-09-26T01:29:08.981Z,99354.76
2022-09-26T01:32:19.138Z,99350.91
2022-09-26T01:35:13.040Z,99347.48
2022-09-26T01:37:43.534Z,99348.40
2022-09-26T01:40:22.311Z,99346.98
2022-09-26T01:43:05.782Z,99340.20
2022-09-26T01:45:46.324Z,99340.31
2022-09-26T01:48:20.457Z,99338.20
2022-09-26T01:50:57.646Z,99340.77
2022-09-26T01:53:33.288Z,99336.57
2022-09-26T01:56:12.108Z,99332.05
2022-09-26T01:58:46.011Z,99330.87
2022-09-26T02:01:18.936Z,99330.77
2022-09-26T02:03:51.971Z,99328.55
2022-09-26T02:06:28.560Z,99326.37
2022-09-26T02:09:21.011Z,99329.55
2022-09-26T02:11:50.970Z,99321.88
2022-09-26T02:14:31.372Z,99318.86
2022-09-26T02:17:13.294Z,99316.30
2022-09-26T02:19:56.813Z,99315.27
2022-09-26T02:22:27.754Z,99311.63
2022-09-26T02:24:55.412Z,99308.89
2022-09-26T02:27:24.914Z,99309.92
2022-09-26T02:29:52.863Z,99306.86
2022-09-26T02:32:40.111Z,99306.79
2022-09-26T02:35:35.635Z,99302.58
2022-09-26T02:38:05.664Z,99300.55
2022-09-26T02:40:46.816Z,99302.83
2022-09-26T02:43:57.481Z,99306.58
2022-09-26T02:46:53.880Z,99301.37
2022-09-26T02:49:32.600Z,99300.48
2022-09-26T02:52:32.160Z,99299.61
2022-09-26T02:55:17.499Z,99294.30
2022-09-26T02:58:17.039Z,99295.51
2022-09-26T03:01:01.063Z,99295.39
2022-09-26T03:03:59.541Z,99290.91
2022-09-26T03:06:35.269Z,99292.48
2022-09-26T03:09:04.886Z,99292.45
2022-09-26T03:11:35.234Z,99293.07
2022-09-26T03:14:04.512Z,99288.71
2022-09-26T03:16:37.977Z,99284.54
2022-09-26T03:19:08.417Z,99286.23
2022-09-26T03:21:37.320Z,99285.58
2022-09-26T03:24:05.171Z,99286.29
2022-09-26T03:26:34.591Z,99284.94
2022-09-26T03:29:02.313Z,99284.62
2022-09-26T03:31:31.300Z,99282.69
2022-09-26T03:33:58.916Z,99278.52
2022-09-26T03:36:27.925Z,99275.40
2022-09-26T03:38:55.644Z,99269.55
2022-09-26T03:41:24.439Z,99264.02
2022-09-26T03:43:52.815Z,99259.73
2022-09-26T03:46:20.396Z,99259.80
2022-09-26T03:48:49.866Z,99260.69
2022-09-26T03:51:18.144Z,99261.53
2022-09-26T03:53:47.312Z,99261.99
2022-09-26T03:56:18.083Z,99258.80
2022-09-26T03:58:47.153Z,99256.18
2022-09-26T04:01:17.468Z,99253.04
2022-09-26T04:03:50.510Z,99252.52
2022-09-26T04:06:21.054Z,99249.98
2022-09-26T04:08:51.346Z,99251.98
2022-09-26T04:11:24.452Z,99255.17
2022-09-26T04:13:53.806Z,99254.15
2022-09-26T04:16:24.222Z,99254.86
2022-09-26T04:18:59.789Z,99255.44
2022-09-26T04:21:28.613Z,99252.30
2022-09-26T04:23:56.372Z,99249.20
2022-09-26T04:26:24.729Z,99243.20
2022-09-26T04:28:55.890Z,99238.62
2022-09-26T04:31:27.988Z,99237.16
2022-09-26T04:33:55.643Z,99233.94
2022-09-26T04:36:24.876Z,99229.96
2022-09-26T04:38:52.492Z,99228.69
2022-09-26T04:41:21.876Z,99231.44
2022-09-26T04:43:49.617Z,99230.16
2022-09-26T04:46:24.510Z,99232.61
2022-09-26T04:48:58.142Z,99232.52
2022-09-26T04:51:28.027Z,99229.79
2022-09-26T04:53:56.275Z,99232.94
2022-09-26T04:56:27.502Z,99233.30
2022-09-26T04:58:57.132Z,99234.20
2022-09-26T05:01:25.908Z,99231.04
2022-09-26T05:03:55.580Z,99222.59
2022-09-26T05:06:23.265Z,99219.98
2022-09-26T05:08:50.953Z,99217.64
2022-09-26T05:11:19.778Z,99217.38
2022-09-26T05:13:53.668Z,99211.90
2022-09-26T05:16:22.738Z,99212.45
2022-09-26T05:18:52.133Z,99210.66
2022-09-26T05:21:20.469Z,99207.96
2022-09-26T05:24:03.999Z,99211.31
2022-09-26T05:26:42.101Z,99211.36
2022-09-26T05:29:10.490Z,99210.88
2022-09-26T05:31:39.876Z,99212.14
2022-09-26T05:34:19.250Z,99208.94
2022-09-26T05:36:47.919Z,99207.77
2022-09-26T05:39:35.861Z,99208.07
2022-09-26T05:42:09.385Z,99206.70
2022-09-26T05:59:44.601Z,99203.00
2022-09-26T06:02:20.576Z,99196.23
2022-09-26T06:04:49.407Z,99196.55
2022-09-26T06:07:17.233Z,99197.73
2022-09-26T06:09:45.715Z,99200.19
2022-09-26T06:12:13.498Z,99196.58
2022-09-26T06:14:46.803Z,99199.39
2022-09-26T06:17:15.101Z,99200.46
2022-09-26T06:19:43.101Z,99200.54
2022-09-26T06:22:12.228Z,99199.54
2022-09-26T06:24:40.422Z,99198.88
2022-09-26T06:27:08.329Z,99195.73
2022-09-26T06:31:37.779Z,99197.98
2022-09-26T06:34:07.697Z,99199.81
2022-09-26T06:36:36.438Z,99196.30
2022-09-26T06:39:05.320Z,99196.00
2022-09-26T06:41:35.053Z,99194.71
2022-09-26T06:44:03.227Z,99198.89
2022-09-26T06:46:31.306Z,99201.52
2022-09-26T06:48:59.105Z,99195.96
2022-09-26T06:51:28.780Z,99196.42
2022-09-26T06:53:56.377Z,99194.69
2022-09-26T06:56:24.001Z,99193.23
2022-09-26T06:58:51.624Z,99191.23
2022-09-26T07:01:22.845Z,99190.77
2022-09-26T07:03:54.346Z,99187.94
2022-09-26T07:06:22.445Z,99186.96
2022-09-26T07:09:12.059Z,99177.35
2022-09-26T07:12:10.042Z,99176.59
2022-09-26T07:14:28.873Z,99174.00
2022-09-26T07:16:56.446Z,99174.35
2022-09-26T07:19:24.094Z,99168.46
2022-09-26T07:21:51.686Z,99167.07
2022-09-26T07:24:19.616Z,99167.89
2022-09-26T07:26:47.569Z,99167.66
2022-09-26T07:29:15.282Z,99168.95
2022-09-26T07:31:43.504Z,99162.60
2022-09-26T07:34:15.814Z,99164.61
2022-09-26T07:36:47.261Z,99168.11
2022-09-26T07:39:15.733Z,99169.32
2022-09-26T07:41:46.736Z,99170.55
2022-09-26T07:47:19.984Z,99167.27
2022-09-26T07:50:02.598Z,99164.08
2022-09-26T07:52:30.927Z,99158.05
2022-09-26T07:54:58.623Z,99159.21
2022-09-26T07:57:26.304Z,99151.77
2022-09-26T07:59:54.335Z,99148.12
2022-09-26T08:02:23.580Z,99153.54
2022-09-26T08:04:58.859Z,99156.52
2022-09-26T08:07:28.504Z,99160.30
2022-09-26T08:09:56.981Z,99164.42
2022-09-26T08:12:27.180Z,99164.35
2022-09-26T08:14:56.201Z,99161.38
2022-09-26T08:17:24.310Z,99169.08
2022-09-26T08:19:52.056Z,99170.89
2022-09-26T08:22:19.678Z,99171.36
2022-09-26T08:24:49.710Z,99171.60
2022-09-26T08:27:18.289Z,99170.61
2022-09-26T08:29:49.646Z,99173.77
2022-09-26T08:32:20.826Z,99171.64
2022-09-26T08:34:50.015Z,99177.73
2022-09-26T08:37:17.634Z,99178.67
2022-09-26T08:39:45.308Z,99178.49
2022-09-26T08:42:36.368Z,99176.37
2022-09-26T08:45:51.859Z,99175.02
2022-09-26T08:48:37.225Z,99176.35
2022-09-26T08:51:42.515Z,99171.48
2022-09-26T08:54:18.141Z,99165.05
2022-09-26T08:57:05.953Z,99161.40
2022-09-26T08:59:43.488Z,99158.43
2022-09-26T09:02:30.279Z,99159.39
2022-09-26T09:05:08.817Z,99157.91
2022-09-26T09:07:36.521Z,99155.52
2022-09-26T09:10:16.119Z,99154.43
2022-09-26T09:12:49.912Z,99146.16
2022-09-26T09:15:51.602Z,99144.92
2022-09-26T09:44:46.771Z,99127.64
2022-09-26T09:47:18.542Z,99125.55
2022-09-26T09:49:48.820Z,99130.61
2022-09-26T09:52:31.820Z,99126.75
2022-09-26T09:55:19.889Z,99120.39
2022-09-26T09:57:53.619Z,99119.59
2022-09-26T10:00:24.463Z,99116.70
2022-09-26T10:03:11.468Z,99117.72
2022-09-26T10:05:51.767Z,99118.05
2022-09-26T10:08:25.472Z,99117.95
2022-09-26T10:11:25.075Z,99114.53
2022-09-26T10:14:00.089Z,99119.23
2022-09-26T10:16:28.404Z,99115.58
2022-09-26T10:19:04.364Z,99119.41
2022-09-26T10:21:41.066Z,99117.14
2022-09-26T10:24:39.018Z,99112.04
2022-09-26T10:27:26.121Z,99111.64
2022-09-26T10:30:02.918Z,99112.78
2022-09-26T10:32:46.292Z,99110.05
2022-09-26T10:35:30.403Z,99106.90
2022-09-26T10:38:06.676Z,99106.35
2022-09-26T10:40:54.203Z,99101.02
2022-09-26T10:43:24.153Z,99103.64
2022-09-26T10:46:03.473Z,99099.28
2022-09-26T10:48:46.333Z,99104.91
2022-09-26T10:51:29.856Z,99100.13
2022-09-26T10:54:07.659Z,99095.55
2022-09-26T10:56:48.450Z,99095.80
2022-09-26T10:59:19.420Z,99093.77
2022-09-26T11:02:03.846Z,99090.62
2022-09-26T11:07:37.398Z,99091.93
2022-09-26T11:10:11.590Z,99089.44
2022-09-26T11:13:03.044Z,99091.16
2022-09-26T11:15:31.029Z,99092.49
2022-09-26T11:17:59.396Z,99087.42
2022-09-26T11:20:53.639Z,99088.95
2022-09-26T11:23:27.502Z,99087.99
2022-09-26T11:26:18.859Z,99081.34
2022-09-26T11:28:56.181Z,99079.55
2022-09-26T11:31:30.593Z,99080.69
2022-09-26T11:34:03.245Z,99082.14
2022-09-26T11:37:10.196Z,99084.45
2022-09-26T11:39:40.811Z,99079.68
2022-09-26T11:42:26.092Z,99080.85
2022-09-26T11:44:58.821Z,99080.88
2022-09-26T11:47:42.926Z,99077.48
2022-09-26T11:50:41.750Z,99071.17
2022-09-26T11:53:42.654Z,99067.09
2022-09-26T11:56:36.273Z,99062.50
2022-09-26T11:59:23.211Z,99065.05
2022-09-26T12:09:11.955Z,99061.87
2022-09-26T12:15:22.094Z,99053.58
2022-09-26T12:18:21.935Z,99050.29
2022-09-26T12:21:12.207Z,99049.73
2022-09-26T12:23:42.503Z,99046.21
2022-09-26T12:26:35.887Z,99042.19
2022-09-26T12:29:38.260Z,99042.73
2022-09-26T12:32:27.646Z,99038.70
2022-09-26T12:35:19.756Z,99040.99
2022-09-26T12:38:20.468Z,99033.70
2022-09-26T12:41:19.999Z,99028.27
2022-09-26T12:44:28.448Z,99029.72
2022-09-26T12:47:04.909Z,99031.95
2022-09-26T12:49:49.468Z,99031.80
2022-09-26T12:52:39.307Z,99025.71
2022-09-26T12:55:32.556Z,99025.52
2022-09-26T12:58:34.846Z,99022.63
2022-09-26T13:01:18.702Z,99019.34
2022-09-26T13:03:52.716Z,99014.91
2022-09-26T13:06:57.254Z,99016.83
2022-09-26T13:10:05.358Z,99017.48
2022-09-26T13:13:22.421Z,99015.17
2022-09-26T13:16:25.554Z,99014.49
2022-09-26T13:19:05.295Z,99010.67
2022-09-26T13:21:59.336Z,99014.94
2022-09-26T13:24:47.302Z,99014.39
2022-09-26T13:27:22.325Z,99013.40
2022-09-26T13:30:00.793Z,99010.05
2022-09-26T13:32:36.903Z,99014.41
2022-09-26T13:35:22.540Z,99017.34
2022-09-26T13:38:09.184Z,99014.02
2022-09-26T13:40:55.703Z,99010.15
2022-09-26T13:43:44.054Z,99011.42
2022-09-26T13:46:28.666Z,99009.84
2022-09-26T13:49:02.217Z,99006.51
2022-09-26T13:51:49.392Z,99004.61
2022-09-26T13:54:27.239Z,98998.34
2022-09-26T13:56:55.942Z,98996.43
2022-09-26T13:59:32.749Z,98993.02
2022-09-26T14:02:24.939Z,98992.41
2022-09-26T14:05:13.604Z,98994.48
2022-09-26T14:07:57.040Z,98989.08
2022-09-26T14:10:35.863Z,98983.00
2022-09-26T14:13:32.189Z,98983.65
2022-09-26T14:16:36.105Z,98980.10
2022-09-26T14:19:25.406Z,98975.52
2022-09-26T14:22:25.040Z,98976.99
2022-09-26T14:24:53.913Z,98976.31
2022-09-26T14:27:41.521Z,98975.27
2022-09-26T14:30:29.604Z,98971.58
2022-09-26T14:33:04.888Z,98970.48
2022-09-26T14:35:35.926Z,98969.79
2022-09-26T14:38:17.164Z,98972.28
2022-09-26T14:41:01.002Z,98968.48
2022-09-26T14:43:31.311Z,98966.23
2022-09-26T14:46:15.222Z,98963.86
2022-09-26T14:48:44.434Z,98961.60
2022-09-26T14:51:12.445Z,98960.50
2022-09-26T14:53:52.297Z,98959.92
2022-09-26T14:56:41.879Z,98965.55
2022-09-26T14:59:25.497Z,98961.23
2022-09-26T15:02:16.740Z,98960.52
2022-09-26T15:04:50.340Z,98958.98
2022-09-26T15:07:22.010Z,98962.23
2022-09-26T15:09:52.465Z,98963.95
2022-09-26T15:12:44.081Z,98965.21
2022-09-26T15:15:37.210Z,98963.54
2022-09-26T15:18:24.513Z,98963.33
2022-09-26T15:21:55.222Z,98961.41
2022-09-26T15:24:33.718Z,98962.31
2022-09-26T15:27:12.393Z,98965.70
2022-09-26T15:29:51.206Z,98969.44
2022-09-26T15:32:28.977Z,98967.03
2022-09-26T15:35:01.347Z,98962.09
2022-09-26T15:37:32.618Z,98959.40
2022-09-26T15:40:18.841Z,98955.23
2022-09-26T15:43:02.934Z,98958.77
2022-09-26T15:45:33.515Z,98958.92
2022-09-26T15:48:23.915Z,98959.87
2022-09-26T15:51:08.136Z,98961.73
2022-09-26T15:53:50.319Z,98962.77
2022-09-26T15:56:37.188Z,98960.22
2022-09-26T15:59:23.535Z,98957.85
2022-09-26T16:01:52.514Z,98960.55
2022-09-26T16:04:27.249Z,98962.27
2022-09-26T16:06:58.022Z,98962.28
2022-09-26T16:09:45.142Z,98964.27
2022-09-26T16:12:16.121Z,98966.71
2022-09-26T16:14:51.005Z,98964.34
2022-09-26T16:17:21.927Z,98963.70
2022-09-26T16:19:53.932Z,98961.96
2022-09-26T16:22:46.548Z,98963.54
2022-09-26T16:25:17.410Z,98964.68
2022-09-26T16:27:51.949Z,98965.71
2022-09-26T16:30:25.519Z,98968.60
2022-09-26T16:32:56.176Z,98970.57
2022-09-26T16:35:29.890Z,98971.21
2022-09-26T16:38:05.388Z,98969.99
2022-09-26T16:40:35.419Z,98974.52
2022-09-26T16:43:08.348Z,98972.45
2022-09-26T16:45:36.035Z,98973.73
2022-09-26T16:48:04.342Z,98970.80
2022-09-26T16:50:34.132Z,98968.78
2022-09-26T16:53:04.348Z,98967.95
2022-09-26T16:55:35.312Z,98969.52
2022-09-26T16:58:05.112Z,98968.33
2022-09-26T17:00:52.725Z,98970.23
2022-09-26T17:03:32.266Z,98973.06
2022-09-26T17:06:00.141Z,98970.98
2022-09-26T17:08:28.567Z,98966.46
2022-09-26T17:11:01.231Z,98966.61
2022-09-26T17:13:34.095Z,98965.98
2022-09-26T17:16:03.557Z,98964.73
2022-09-26T17:18:34.913Z,98963.02
2022-09-26T17:21:03.012Z,98963.33
2022-09-26T17:23:40.347Z,98962.04
2022-09-26T17:26:21.523Z,98964.20
2022-09-26T17:28:53.200Z,98962.13
2022-09-26T17:31:21.216Z,98962.06
2022-09-26T17:33:53.332Z,98959.83
2022-09-26T17:36:27.184Z,98961.81
2022-09-26T17:38:59.187Z,98962.95
2022-09-26T17:41:28.991Z,98962.29
2022-09-26T17:44:00.369Z,98961.15
2022-09-26T17:46:28.938Z,98958.11
2022-09-26T17:48:56.806Z,98958.47
2022-09-26T17:51:25.361Z,98955.71
2022-09-26T17:53:52.991Z,98956.23
2022-09-26T17:56:21.024Z,98961.73
2022-09-26T17:58:51.097Z,98960.66
2022-09-26T18:01:28.328Z,98961.65
2022-09-26T18:04:00.052Z,98960.57
2022-09-26T18:06:33.195Z,98965.61
2022-09-26T18:09:07.338Z,98965.25
2022-09-26T18:11:36.219Z,98965.21
2022-09-26T18:14:07.901Z,98964.18
2022-09-26T18:16:35.513Z,98965.14
2022-09-26T18:19:07.470Z,98958.62
2022-09-26T18:21:36.018Z,98959.95
2022-09-26T18:24:07.008Z,98954.45
2022-09-26T18:26:47.049Z,98957.39
2022-09-26T18:29:36.156Z,98952.86
2022-09-26T18:32:11.705Z,98946.98
2022-09-26T18:34:39.364Z,98946.63
2022-09-26T18:37:06.959Z,98944.66
2022-09-26T18:39:35.722Z,98939.85
2022-09-26T18:42:09.055Z,98936.23
2022-09-26T18:44:36.951Z,98935.24
2022-09-26T18:47:11.170Z,98935.35
2022-09-26T18:49:38.833Z,98936.61
2022-09-26T18:52:13.549Z,98939.30
2022-09-26T18:54:45.102Z,98942.98
2022-09-26T18:57:29.080Z,98942.64
2022-09-26T18:59:59.067Z,98947.75
2022-09-26T19:02:32.555Z,98945.04
2022-09-26T19:05:02.885Z,98951.29
2022-09-26T19:07:33.959Z,98951.21
2022-09-26T19:10:01.639Z,98953.89
2022-09-26T19:12:31.523Z,98953.45
2022-09-26T19:14:59.172Z,98963.53
2022-09-26T19:17:26.731Z,98966.03
2022-09-26T19:19:54.347Z,98968.83
2022-09-26T19:22:22.043Z,98966.75
2022-09-26T19:24:56.080Z,98970.81
2022-09-26T19:27:28.438Z,98971.96
2022-09-26T19:29:59.053Z,98977.64
2022-09-26T19:32:31.623Z,98982.58
2022-09-26T19:35:25.873Z,98984.14
2022-09-26T19:37:53.610Z,98982.15
2022-09-26T19:40:22.877Z,98981.80
2022-09-26T19:42:50.813Z,98982.94
2022-09-26T19:45:19.835Z,98981.06
2022-09-26T19:47:53.225Z,98975.84
2022-09-26T19:50:25.937Z,98973.86
2022-09-26T19:52:56.557Z,98971.09
2022-09-26T19:55:27.464Z,98964.15
2022-09-26T19:58:00.713Z,98963.93
2022-09-26T20:00:29.018Z,98963.10
2022-09-26T20:02:57.397Z,98962.77
2022-09-26T20:05:26.386Z,98959.83
2022-09-26T20:07:53.982Z,98960.42
2022-09-26T20:10:25.297Z,98963.36
2022-09-26T20:12:53.830Z,98957.24
2022-09-26T20:15:21.414Z,98959.16
2022-09-26T20:17:49.422Z,98956.53
2022-09-26T20:20:22.889Z,98958.83
2022-09-26T20:22:53.673Z,98959.10
2022-09-26T20:25:27.065Z,98956.15
2022-09-26T20:27:56.042Z,98954.84
2022-09-26T20:30:40.849Z,98951.27
2022-09-26T20:33:10.636Z,98944.22
2022-09-26T20:35:43.287Z,98943.05
2022-09-26T20:38:21.071Z,98941.23
2022-09-26T20:40:49.191Z,98940.27
2022-09-26T20:43:26.815Z,98940.18
2022-09-26T20:45:54.544Z,98940.39
2022-09-26T20:48:25.302Z,98941.77
2022-09-26T20:50:53.145Z,98944.94
2022-09-26T20:53:24.226Z,98944.88
2022-09-26T20:55:54.631Z,98942.83
2022-09-26T20:58:22.388Z,98941.89
2022-09-26T21:00:50.426Z,98942.95
2022-09-26T21:03:21.919Z,98940.10
2022-09-26T21:05:49.494Z,98937.64
2022-09-26T21:08:33.246Z,98936.61
2022-09-26T21:11:00.983Z,98939.46
2022-09-26T21:13:28.650Z,98935.36
2022-09-26T21:15:56.405Z,98930.41
2022-09-26T21:18:27.131Z,98929.23
2022-09-26T21:20:59.427Z,98928.27
2022-09-26T21:23:27.215Z,98922.48
2022-09-26T21:25:54.815Z,98919.24
2022-09-26T21:28:27.964Z,98919.50
2022-09-26T21:31:01.240Z,98918.16
2022-09-26T21:33:28.950Z,98914.95
2022-09-26T21:35:57.858Z,98912.63
2022-09-26T21:38:26.850Z,98915.62
2022-09-26T21:40:59.797Z,98914.64
2022-09-26T21:43:31.948Z,98911.19
2022-09-26T21:45:59.634Z,98906.98
2022-09-26T21:48:27.919Z,98909.84
2022-09-26T21:50:58.442Z,98906.04
2022-09-26T21:53:37.626Z,98903.58
2022-09-26T21:56:14.546Z,98904.27
2022-09-26T21:58:43.778Z,98899.23
2022-09-26T22:01:12.370Z,98895.08
2022-09-26T22:03:40.431Z,98894.56
2022-09-26T22:06:10.029Z,98900.90
2022-09-26T22:08:39.422Z,98912.06
2022-09-26T22:11:11.224Z,98916.73
2022-09-26T22:13:38.861Z,98916.16
2022-09-26T22:16:09.035Z,98916.65
2022-09-26T22:18:38.861Z,98911.84
2022-09-26T22:21:08.872Z,98905.98
2022-09-26T22:23:36.886Z,98896.86
2022-09-26T22:26:04.940Z,98890.47
2022-09-26T22:28:32.501Z,98885.55
2022-09-26T22:31:05.111Z,98885.31
2022-09-26T22:33:34.376Z,98878.46
2022-09-26T22:36:02.696Z,98877.05
2022-09-26T22:38:32.192Z,98880.80
2022-09-26T22:41:03.457Z,98877.64
2022-09-26T22:43:33.060Z,98879.38
2022-09-26T22:46:06.807Z,98879.43
2022-09-26T22:48:36.892Z,98872.08
2022-09-26T22:51:05.401Z,98871.58
2022-09-26T22:53:36.327Z,98876.88
2022-09-26T22:56:05.649Z,98874.71
2022-09-26T22:58:38.184Z,98874.17
2022-09-26T23:01:09.079Z,98874.84
2022-09-26T23:03:37.205Z,98871.02
2022-09-26T23:06:05.497Z,98868.59
2022-09-26T23:08:34.611Z,98867.48
2022-09-26T23:11:03.376Z,98863.75
2022-09-26T23:13:32.837Z,98865.73
2022-09-26T23:16:09.633Z,98862.10
2022-09-26T23:18:39.256Z,98863.11
2022-09-26T23:21:15.994Z,98859.44
2022-09-26T23:23:46.130Z,98859.06
2022-09-26T23:26:17.022Z,98858.46
2022-09-26T23:28:44.594Z,98855.09
2022-09-26T23:31:12.373Z,98854.41
2022-09-26T23:33:40.847Z,98857.20
2022-09-26T23:36:08.957Z,98857.19
2022-09-26T23:38:38.568Z,98859.23
2022-09-26T23:41:08.065Z,98861.72
2022-09-26T23:43:36.263Z,98861.46
2022-09-26T23:46:04.401Z,98859.80
2022-09-26T23:48:32.041Z,98858.98
2022-09-26T23:50:59.917Z,98857.13
2022-09-26T23:53:27.704Z,98853.28
2022-09-26T23:56:13.721Z,98851.79
2022-09-26T23:58:41.909Z,98851.63
